ADDS METAR Data INFO
IDs: Format: Raw Decoded Include TAF

Data at: 0347 UTC 18 Oct 2017

KALM 180335Z AUTO 09004KT 10SM CLR 17/02 A3018 RMK AO2
KALM 180315Z AUTO 17003KT 10SM CLR 17/03 A3018 RMK AO2
KALM 180255Z AUTO 15004KT 10SM CLR 17/03 A3018 RMK AO2
KALM 180235Z AUTO 09005KT 10SM CLR 17/03 A3017 RMK AO2
KALM 180215Z AUTO 10003KT 10SM CLR 17/03 A3018 RMK AO2
KALM 180155Z AUTO 11005KT 10SM CLR 18/03 A3017 RMK AO2
KALM 180135Z AUTO 13006KT 10SM CLR 19/03 A3017 RMK AO2
KALM 180115Z AUTO 14005KT 10SM CLR 19/04 A3016 RMK AO2
KALM 180055Z AUTO 16004KT 10SM CLR 22/03 A3016 RMK AO2
KALM 180035Z AUTO 00000KT 10SM CLR 23/03 A3015 RMK AO2
KALM 180015Z AUTO 00000KT 10SM CLR 24/03 A3015 RMK AO2
KALM 172355Z AUTO 00000KT 10SM CLR 25/03 A3015 RMK AO2
KALM 172335Z AUTO 00000KT 10SM CLR 26/03 A3015 RMK AO2
KALM 172315Z AUTO 00000KT 10SM CLR 26/03 A3016 RMK AO2
KALM 172255Z AUTO 28003KT 10SM CLR 27/03 A3016 RMK AO2
KALM 172235Z AUTO 31004KT 10SM CLR 27/03 A3017 RMK AO2
KALM 172215Z AUTO 00000KT 10SM CLR 26/03 A3017 RMK AO2
KALM 172155Z AUTO 00000KT 10SM CLR 27/04 A3017 RMK AO2
KALM 172135Z AUTO 19003KT 10SM CLR 26/03 A3018 RMK AO2
KALM 172115Z AUTO 33004KT 10SM CLR 26/04 A3019 RMK AO2
KALM 172055Z AUTO 01003KT 10SM CLR 25/04 A3019 RMK AO2
KALM 172035Z AUTO 25006KT 10SM CLR 25/04 A3020 RMK AO2
KALM 172015Z AUTO 27005KT 10SM CLR 25/04 A3022 RMK AO2
KALM 171955Z AUTO 31004KT 10SM CLR 25/04 A3023 RMK AO2
KALM 171935Z AUTO 03003KT 10SM CLR 24/04 A3024 RMK AO2
KALM 171915Z AUTO 26005KT 10SM CLR 24/03 A3026 RMK AO2
KALM 171855Z AUTO 22003KT 10SM CLR 24/03 A3027 RMK AO2
KALM 171835Z AUTO 24005KT 10SM CLR 23/03 A3029 RMK AO2
KALM 171815Z AUTO 25006KT 10SM CLR 22/03 A3030 RMK AO2
KALM 171755Z AUTO 24004KT 10SM CLR 22/03 A3031 RMK AO2
KALM 171735Z AUTO 24005KT 10SM CLR 22/03 A3032 RMK AO2
KALM 171715Z AUTO 26004KT 10SM CLR 20/03 A3032 RMK AO2
KALM 171655Z AUTO 00000KT 10SM CLR 19/03 A3033 RMK AO2
KALM 171635Z AUTO 26004KT 10SM CLR 19/03 A3033 RMK AO2
KALM 171615Z AUTO 00000KT 10SM CLR 18/03 A3034 RMK AO2
KALM 171555Z AUTO 22003KT 10SM CLR 17/03 A3034 RMK AO2
KALM 171535Z AUTO 00000KT 10SM CLR 15/03 A3033 RMK AO2
KALM 171515Z AUTO 00000KT 10SM CLR 14/03 A3033 RMK AO2
KALM 171455Z AUTO 00000KT 10SM CLR 13/03 A3033 RMK AO2
KALM 171435Z AUTO 00000KT 10SM CLR 12/03 A3032 RMK AO2
KALM 171415Z AUTO 00000KT 10SM CLR 09/02 A3032 RMK AO2
KALM 171355Z AUTO 00000KT 10SM CLR 07/00 A3031 RMK AO2
KALM 171335Z AUTO 17003KT 10SM CLR 05/00 A3031 RMK AO2
KALM 171315Z AUTO 00000KT 10SM CLR 06/01 A3031 RMK AO2
KALM 171255Z AUTO 00000KT 10SM CLR 08/01 A3031 RMK AO2
KALM 171235Z AUTO 10004KT 10SM CLR 07/02 A3030 RMK AO2
KALM 171215Z AUTO 12003KT 10SM CLR 07/02 A3031 RMK AO2
KALM 171155Z AUTO 00000KT 10SM CLR 07/01 A3030 RMK AO2
KALM 171135Z AUTO 00000KT 10SM CLR 08/02 A3030 RMK AO2
KALM 171115Z AUTO 09003KT 10SM CLR 10/02 A3030 RMK AO2
KALM 171055Z AUTO 05004KT 10SM CLR 10/02 A3030 RMK AO2
KALM 171035Z AUTO 03005KT 10SM CLR 11/03 A3030 RMK AO2
KALM 171015Z AUTO 36006KT 10SM CLR 12/03 A3030 RMK AO2
KALM 170955Z AUTO 35006KT 10SM CLR 11/02 A3030 RMK AO2
KALM 170935Z AUTO 36005KT 10SM CLR 10/02 A3031 RMK AO2
KALM 170915Z AUTO 01004KT 10SM CLR 10/02 A3032 RMK AO2
KALM 170855Z AUTO 01005KT 10SM CLR 11/02 A3032 RMK AO2
KALM 170835Z AUTO 02005KT 10SM CLR 10/02 A3033 RMK AO2
KALM 170815Z AUTO 36005KT 10SM CLR 10/02 A3033 RMK AO2
KALM 170755Z AUTO 29003KT 10SM CLR 12/02 A3033 RMK AO2
KALM 170735Z AUTO 30003KT 10SM CLR 13/03 A3033 RMK AO2
KALM 170715Z AUTO 30003KT 10SM CLR 12/03 A3032 RMK AO2
KALM 170655Z AUTO 00000KT 10SM CLR 13/03 A3032 RMK AO2
KALM 170635Z AUTO 10003KT 10SM CLR 13/04 A3032 RMK AO2
KALM 170615Z AUTO 09007KT 10SM CLR 11/03 A3032 RMK AO2
KALM 170555Z AUTO 07007KT 10SM CLR 13/03 A3032 RMK AO2
KALM 170535Z AUTO 06006KT 10SM CLR 12/02 A3033 RMK AO2
KALM 170515Z AUTO 06005KT 10SM CLR 13/01 A3033 RMK AO2
KALM 170455Z AUTO 00000KT 10SM CLR 13/00 A3033 RMK AO2
KALM 170435Z AUTO 05005KT 10SM CLR 15/00 A3033 RMK AO2
KALM 170415Z AUTO 04006KT 10SM CLR 15/M01 A3033 RMK AO2
KALM 170355Z AUTO 04007KT 10SM CLR 15/00 A3033 RMK AO2
KALM 170335Z AUTO 02006KT 10SM CLR 15/00 A3034 RMK AO2
KALM 170315Z AUTO 04004KT 10SM CLR 15/01 A3033 RMK AO2
KALM 170255Z AUTO 06003KT 10SM CLR 15/01 A3033 RMK AO2
KALM 170235Z AUTO 00000KT 10SM CLR 15/01 A3033 RMK AO2
KALM 170215Z AUTO 13005KT 10SM CLR 16/01 A3032 RMK AO2
KALM 170155Z AUTO 13006KT 10SM CLR 15/01 A3032 RMK AO2
KALM 170135Z AUTO 14005KT 10SM CLR 17/02 A3032 RMK AO2
KALM 170115Z AUTO 17004KT 10SM CLR 18/02 A3031 RMK AO2
KALM 170055Z AUTO 20003KT 10SM CLR 20/01 A3031 RMK AO2
KALM 170035Z AUTO 00000KT 10SM CLR 21/01 A3031 RMK AO2
KALM 170015Z AUTO 00000KT 10SM CLR 23/00 A3031 RMK AO2
KALM 162355Z AUTO 00000KT 10SM CLR 23/00 A3031 RMK AO2
KALM 162335Z AUTO 00000KT 10SM CLR 23/00 A3031 RMK AO2
KALM 162315Z AUTO 33003KT 10SM CLR 23/00 A3032 RMK AO2
KALM 162255Z AUTO 00000KT 10SM CLR 23/00 A3032 RMK AO2
KALM 162235Z AUTO 00000KT 10SM CLR 23/00 A3032 RMK AO2
KALM 162215Z AUTO 00000KT 10SM CLR 23/00 A3033 RMK AO2
KALM 162155Z AUTO 00000KT 10SM CLR 23/00 A3033 RMK AO2
KALM 162135Z AUTO 24003KT 10SM CLR 23/00 A3034 RMK AO2
KALM 162115Z AUTO 34003KT 10SM CLR 23/M01 A3034 RMK AO2
KALM 162055Z AUTO 00000KT 10SM CLR 23/00 A3035 RMK AO2
KALM 162035Z AUTO 00000KT 10SM CLR 22/M01 A3036 RMK AO2
KALM 162015Z AUTO 34005KT 10SM CLR 22/M01 A3037 RMK AO2
KALM 161955Z AUTO 32003KT 10SM CLR 21/M01 A3038 RMK AO2
KALM 161935Z AUTO 00000KT 10SM CLR 21/M01 A3040 RMK AO2
KALM 161915Z AUTO 03005KT 10SM CLR 20/M01 A3041 RMK AO2
KALM 161855Z AUTO 00000KT 10SM CLR 20/M01 A3043 RMK AO2
KALM 161835Z AUTO 00000KT 10SM CLR 20/M01 A3044 RMK AO2
KALM 161815Z AUTO 30004KT 10SM CLR 19/M01 A3045 RMK AO2
KALM 161755Z AUTO 00000KT 10SM CLR 19/M01 A3046 RMK AO2
KALM 161735Z AUTO 29004KT 10SM CLR 18/M01 A3047 RMK AO2
KALM 161715Z AUTO 03003KT 10SM CLR 17/M02 A3048 RMK AO2
KALM 161655Z AUTO 35003KT 10SM CLR 17/M02 A3049 RMK AO2
KALM 161635Z AUTO 29004KT 10SM CLR 16/M01 A3049 RMK AO2
KALM 161615Z AUTO 00000KT 10SM CLR 15/M01 A3050 RMK AO2
KALM 161555Z AUTO 30003KT 10SM CLR 15/M01 A3050 RMK AO2